sensor_id;sensor_type;location;lat;lon;timestamp;P1;durP1;ratioP1;P2;durP2;ratioP2
19653;SDS011;9975;48.046;7.804;2022-07-30T02:04:11;3.00;;;2.40;;
19653;SDS011;9975;48.046;7.804;2022-07-30T02:06:38;3.30;;;3.07;;
19653;SDS011;9975;48.046;7.804;2022-07-30T02:09:10;10.87;;;4.13;;
19653;SDS011;9975;48.046;7.804;2022-07-30T02:11:40;3.50;;;2.67;;
19653;SDS011;9975;48.046;7.804;2022-07-30T02:14:31;2.80;;;2.43;;
19653;SDS011;9975;48.046;7.804;2022-07-30T02:17:03;3.17;;;2.43;;
19653;SDS011;9975;48.046;7.804;2022-07-30T02:19:32;3.63;;;2.27;;
19653;SDS011;9975;48.046;7.804;2022-07-30T02:22:04;4.33;;;2.30;;
19653;SDS011;9975;48.046;7.804;2022-07-30T02:24:35;4.17;;;2.53;;
19653;SDS011;9975;48.046;7.804;2022-07-30T02:27:07;2.87;;;2.67;;
19653;SDS011;9975;48.046;7.804;2022-07-30T02:29:37;3.00;;;2.70;;
19653;SDS011;9975;48.046;7.804;2022-07-30T02:32:05;3.33;;;3.03;;
19653;SDS011;9975;48.046;7.804;2022-07-30T02:34:35;3.47;;;3.17;;
19653;SDS011;9975;48.046;7.804;2022-07-30T02:37:04;3.47;;;2.10;;
19653;SDS011;9975;48.046;7.804;2022-07-30T02:39:32;3.07;;;2.80;;
19653;SDS011;9975;48.046;7.804;2022-07-30T02:41:59;3.47;;;2.73;;
19653;SDS011;9975;48.046;7.804;2022-07-30T02:44:27;4.57;;;2.97;;
19653;SDS011;9975;48.046;7.804;2022-07-30T02:46:55;2.93;;;2.50;;
19653;SDS011;9975;48.046;7.804;2022-07-30T02:49:22;3.10;;;2.50;;
19653;SDS011;9975;48.046;7.804;2022-07-30T02:51:48;2.87;;;2.50;;
19653;SDS011;9975;48.046;7.804;2022-07-30T02:54:16;4.03;;;3.00;;
19653;SDS011;9975;48.046;7.804;2022-07-30T02:56:44;2.80;;;2.60;;
19653;SDS011;9975;48.046;7.804;2022-07-30T02:59:12;3.27;;;2.87;;
19653;SDS011;9975;48.046;7.804;2022-07-30T03:01:39;3.60;;;2.63;;
19653;SDS011;9975;48.046;7.804;2022-07-30T03:04:06;2.87;;;2.67;;
19653;SDS011;9975;48.046;7.804;2022-07-30T03:06:33;2.80;;;2.60;;
19653;SDS011;9975;48.046;7.804;2022-07-30T03:09:00;2.33;;;2.17;;
19653;SDS011;9975;48.046;7.804;2022-07-30T03:11:27;3.40;;;3.10;;
19653;SDS011;9975;48.046;7.804;2022-07-30T03:13:54;3.93;;;2.83;;
19653;SDS011;9975;48.046;7.804;2022-07-30T03:16:21;5.07;;;2.20;;
19653;SDS011;9975;48.046;7.804;2022-07-30T03:18:48;4.20;;;2.60;;
19653;SDS011;9975;48.046;7.804;2022-07-30T03:21:16;5.63;;;2.93;;
19653;SDS011;9975;48.046;7.804;2022-07-30T03:23:47;3.30;;;3.00;;
19653;SDS011;9975;48.046;7.804;2022-07-30T03:26:14;4.50;;;3.40;;
19653;SDS011;9975;48.046;7.804;2022-07-30T03:28:43;3.97;;;3.30;;
19653;SDS011;9975;48.046;7.804;2022-07-30T03:31:12;6.20;;;2.97;;
19653;SDS011;9975;48.046;7.804;2022-07-30T03:33:39;3.20;;;2.80;;
19653;SDS011;9975;48.046;7.804;2022-07-30T03:36:06;4.47;;;3.20;;
19653;SDS011;9975;48.046;7.804;2022-07-30T03:38:34;4.40;;;3.20;;
19653;SDS011;9975;48.046;7.804;2022-07-30T03:41:02;3.33;;;3.03;;
19653;SDS011;9975;48.046;7.804;2022-07-30T03:43:28;5.77;;;3.17;;
19653;SDS011;9975;48.046;7.804;2022-07-30T03:45:55;4.30;;;3.50;;
19653;SDS011;9975;48.046;7.804;2022-07-30T03:48:24;6.07;;;3.77;;
19653;SDS011;9975;48.046;7.804;2022-07-30T03:50:51;3.90;;;3.53;;
19653;SDS011;9975;48.046;7.804;2022-07-30T03:53:18;5.07;;;2.70;;
19653;SDS011;9975;48.046;7.804;2022-07-30T03:55:48;3.13;;;2.83;;
19653;SDS011;9975;48.046;7.804;2022-07-30T03:58:14;3.30;;;3.03;;
19653;SDS011;9975;48.046;7.804;2022-07-30T04:00:41;3.90;;;3.50;;
19653;SDS011;9975;48.046;7.804;2022-07-30T04:03:10;3.43;;;3.13;;
19653;SDS011;9975;48.046;7.804;2022-07-30T04:05:36;3.50;;;3.10;;
19653;SDS011;9975;48.046;7.804;2022-07-30T04:08:02;3.20;;;2.90;;
19653;SDS011;9975;48.046;7.804;2022-07-30T04:10:27;3.47;;;3.17;;
19653;SDS011;9975;48.046;7.804;2022-07-30T04:12:53;4.50;;;3.77;;
19653;SDS011;9975;48.046;7.804;2022-07-30T04:15:20;3.10;;;2.80;;
19653;SDS011;9975;48.046;7.804;2022-07-30T04:17:50;4.13;;;3.00;;
19653;SDS011;9975;48.046;7.804;2022-07-30T04:20:26;8.80;;;3.60;;
19653;SDS011;9975;48.046;7.804;2022-07-30T04:22:56;4.10;;;3.43;;
19653;SDS011;9975;48.046;7.804;2022-07-30T04:25:23;10.07;;;4.03;;
19653;SDS011;9975;48.046;7.804;2022-07-30T04:27:49;5.17;;;2.93;;
19653;SDS011;9975;48.046;7.804;2022-07-30T04:30:15;4.63;;;3.37;;
19653;SDS011;9975;48.046;7.804;2022-07-30T04:32:42;8.43;;;3.57;;
19653;SDS011;9975;48.046;7.804;2022-07-30T04:35:10;3.07;;;2.80;;
19653;SDS011;9975;48.046;7.804;2022-07-30T04:37:36;3.93;;;3.53;;
19653;SDS011;9975;48.046;7.804;2022-07-30T04:40:01;4.90;;;3.40;;
19653;SDS011;9975;48.046;7.804;2022-07-30T04:42:27;3.43;;;3.13;;
19653;SDS011;9975;48.046;7.804;2022-07-30T04:44:54;3.43;;;3.00;;
19653;SDS011;9975;48.046;7.804;2022-07-30T04:47:21;3.20;;;2.87;;
19653;SDS011;9975;48.046;7.804;2022-07-30T04:49:46;7.10;;;3.70;;
19653;SDS011;9975;48.046;7.804;2022-07-30T04:52:13;3.60;;;2.83;;
19653;SDS011;9975;48.046;7.804;2022-07-30T04:54:45;3.57;;;3.07;;
19653;SDS011;9975;48.046;7.804;2022-07-30T04:57:15;4.10;;;3.73;;
19653;SDS011;9975;48.046;7.804;2022-07-30T04:59:42;3.70;;;3.40;;
19653;SDS011;9975;48.046;7.804;2022-07-30T05:02:08;3.00;;;2.80;;
19653;SDS011;9975;48.046;7.804;2022-07-30T05:04:36;12.83;;;3.87;;
19653;SDS011;9975;48.046;7.804;2022-07-30T05:07:03;4.57;;;3.50;;
19653;SDS011;9975;48.046;7.804;2022-07-30T05:09:30;5.50;;;3.10;;
19653;SDS011;9975;48.046;7.804;2022-07-30T05:11:57;4.07;;;3.43;;
19653;SDS011;9975;48.046;7.804;2022-07-30T05:14:23;4.10;;;3.70;;
19653;SDS011;9975;48.046;7.804;2022-07-30T05:16:49;3.87;;;3.10;;
19653;SDS011;9975;48.046;7.804;2022-07-30T05:19:16;8.33;;;4.27;;
19653;SDS011;9975;48.046;7.804;2022-07-30T05:21:43;5.00;;;4.10;;
19653;SDS011;9975;48.046;7.804;2022-07-30T05:24:09;6.10;;;3.70;;
19653;SDS011;9975;48.046;7.804;2022-07-30T05:26:35;4.30;;;3.37;;
19653;SDS011;9975;48.046;7.804;2022-07-30T05:29:01;3.87;;;3.47;;
19653;SDS011;9975;48.046;7.804;2022-07-30T05:31:27;11.40;;;3.63;;
19653;SDS011;9975;48.046;7.804;2022-07-30T05:33:53;6.77;;;3.50;;
19653;SDS011;9975;48.046;7.804;2022-07-30T05:36:19;9.57;;;4.60;;
19653;SDS011;9975;48.046;7.804;2022-07-30T05:38:45;3.30;;;2.90;;
19653;SDS011;9975;48.046;7.804;2022-07-30T05:41:12;4.53;;;3.17;;
19653;SDS011;9975;48.046;7.804;2022-07-30T05:43:37;7.80;;;4.50;;
19653;SDS011;9975;48.046;7.804;2022-07-30T05:46:03;5.93;;;3.70;;
19653;SDS011;9975;48.046;7.804;2022-07-30T05:48:29;5.97;;;3.77;;
19653;SDS011;9975;48.046;7.804;2022-07-30T05:50:56;4.10;;;3.80;;
19653;SDS011;9975;48.046;7.804;2022-07-30T05:53:21;4.10;;;3.70;;
19653;SDS011;9975;48.046;7.804;2022-07-30T05:55:47;5.97;;;3.50;;
19653;SDS011;9975;48.046;7.804;2022-07-30T05:58:12;4.43;;;4.03;;
19653;SDS011;9975;48.046;7.804;2022-07-30T06:00:38;3.87;;;3.50;;
19653;SDS011;9975;48.046;7.804;2022-07-30T06:03:04;4.77;;;3.70;;
19653;SDS011;9975;48.046;7.804;2022-07-30T06:05:29;5.10;;;3.67;;
19653;SDS011;9975;48.046;7.804;2022-07-30T06:07:56;5.33;;;3.07;;
19653;SDS011;9975;48.046;7.804;2022-07-30T06:10:22;3.43;;;3.13;;
19653;SDS011;9975;48.046;7.804;2022-07-30T06:12:49;7.20;;;3.60;;
19653;SDS011;9975;48.046;7.804;2022-07-30T06:15:16;5.83;;;3.80;;
19653;SDS011;9975;48.046;7.804;2022-07-30T06:17:43;3.43;;;3.17;;
19653;SDS011;9975;48.046;7.804;2022-07-30T06:20:10;3.43;;;3.13;;
19653;SDS011;9975;48.046;7.804;2022-07-30T06:22:36;4.07;;;3.67;;
19653;SDS011;9975;48.046;7.804;2022-07-30T06:25:02;6.33;;;3.77;;
19653;SDS011;9975;48.046;7.804;2022-07-30T06:27:28;3.87;;;3.57;;
19653;SDS011;9975;48.046;7.804;2022-07-30T06:29:54;5.93;;;3.40;;
19653;SDS011;9975;48.046;7.804;2022-07-30T06:32:20;4.20;;;3.80;;
19653;SDS011;9975;48.046;7.804;2022-07-30T06:34:45;5.33;;;3.23;;
19653;SDS011;9975;48.046;7.804;2022-07-30T06:37:11;13.33;;;3.47;;
19653;SDS011;9975;48.046;7.804;2022-07-30T06:39:36;5.03;;;4.40;;
19653;SDS011;9975;48.046;7.804;2022-07-30T06:42:02;3.87;;;3.30;;
19653;SDS011;9975;48.046;7.804;2022-07-30T06:44:28;5.80;;;3.33;;
19653;SDS011;9975;48.046;7.804;2022-07-30T06:46:53;3.97;;;3.23;;
19653;SDS011;9975;48.046;7.804;2022-07-30T06:49:19;3.67;;;3.10;;
19653;SDS011;9975;48.046;7.804;2022-07-30T06:51:45;5.20;;;3.73;;
19653;SDS011;9975;48.046;7.804;2022-07-30T06:54:10;8.20;;;3.90;;
19653;SDS011;9975;48.046;7.804;2022-07-30T06:56:36;3.37;;;3.13;;
19653;SDS011;9975;48.046;7.804;2022-07-30T06:59:02;4.57;;;4.17;;
19653;SDS011;9975;48.046;7.804;2022-07-30T07:01:27;3.50;;;3.20;;
19653;SDS011;9975;48.046;7.804;2022-07-30T07:03:53;4.23;;;3.63;;
19653;SDS011;9975;48.046;7.804;2022-07-30T07:06:19;4.23;;;3.87;;
19653;SDS011;9975;48.046;7.804;2022-07-30T07:08:44;6.70;;;4.00;;
19653;SDS011;9975;48.046;7.804;2022-07-30T07:11:10;3.93;;;3.53;;
19653;SDS011;9975;48.046;7.804;2022-07-30T07:13:36;5.50;;;3.37;;
19653;SDS011;9975;48.046;7.804;2022-07-30T07:16:01;3.10;;;2.90;;
19653;SDS011;9975;48.046;7.804;2022-07-30T07:18:28;4.40;;;3.17;;
19653;SDS011;9975;48.046;7.804;2022-07-30T07:20:53;4.83;;;3.20;;
19653;SDS011;9975;48.046;7.804;2022-07-30T07:23:19;5.90;;;3.27;;
19653;SDS011;9975;48.046;7.804;2022-07-30T07:25:45;3.70;;;2.93;;
19653;SDS011;9975;48.046;7.804;2022-07-30T07:28:11;3.87;;;3.10;;
19653;SDS011;9975;48.046;7.804;2022-07-30T07:30:37;3.40;;;3.10;;
19653;SDS011;9975;48.046;7.804;2022-07-30T07:33:02;5.33;;;4.07;;
19653;SDS011;9975;48.046;7.804;2022-07-30T07:35:28;3.80;;;2.97;;
19653;SDS011;9975;48.046;7.804;2022-07-30T07:37:53;4.60;;;2.80;;
19653;SDS011;9975;48.046;7.804;2022-07-30T07:40:19;3.60;;;3.30;;
19653;SDS011;9975;48.046;7.804;2022-07-30T07:42:45;7.53;;;2.47;;
19653;SDS011;9975;48.046;7.804;2022-07-30T07:45:10;3.90;;;2.63;;
19653;SDS011;9975;48.046;7.804;2022-07-30T07:47:43;4.57;;;3.03;;
19653;SDS011;9975;48.046;7.804;2022-07-30T07:50:10;3.33;;;3.00;;
19653;SDS011;9975;48.046;7.804;2022-07-30T07:52:35;3.43;;;2.57;;
19653;SDS011;9975;48.046;7.804;2022-07-30T07:55:01;4.43;;;2.63;;
19653;SDS011;9975;48.046;7.804;2022-07-30T07:57:27;4.23;;;3.23;;
19653;SDS011;9975;48.046;7.804;2022-07-30T07:59:54;3.97;;;3.17;;
19653;SDS011;9975;48.046;7.804;2022-07-30T08:02:19;3.07;;;2.77;;
19653;SDS011;9975;48.046;7.804;2022-07-30T08:04:45;5.13;;;3.43;;
19653;SDS011;9975;48.046;7.804;2022-07-30T08:07:11;3.20;;;2.90;;
19653;SDS011;9975;48.046;7.804;2022-07-30T08:09:36;2.60;;;2.50;;
19653;SDS011;9975;48.046;7.804;2022-07-30T08:12:02;10.57;;;3.47;;
19653;SDS011;9975;48.046;7.804;2022-07-30T08:14:28;4.77;;;3.00;;
19653;SDS011;9975;48.046;7.804;2022-07-30T08:16:53;3.40;;;3.20;;
19653;SDS011;9975;48.046;7.804;2022-07-30T08:19:19;4.10;;;3.70;;
19653;SDS011;9975;48.046;7.804;2022-07-30T08:21:45;3.77;;;2.73;;
19653;SDS011;9975;48.046;7.804;2022-07-30T08:24:10;3.37;;;2.50;;
19653;SDS011;9975;48.046;7.804;2022-07-30T08:26:36;5.90;;;2.80;;
19653;SDS011;9975;48.046;7.804;2022-07-30T08:29:02;4.70;;;2.90;;
19653;SDS011;9975;48.046;7.804;2022-07-30T08:31:27;7.33;;;4.37;;
19653;SDS011;9975;48.046;7.804;2022-07-30T08:33:53;4.83;;;2.90;;
19653;SDS011;9975;48.046;7.804;2022-07-30T08:36:18;6.13;;;3.60;;
19653;SDS011;9975;48.046;7.804;2022-07-30T08:38:44;4.20;;;3.40;;
19653;SDS011;9975;48.046;7.804;2022-07-30T08:41:10;5.37;;;2.70;;
19653;SDS011;9975;48.046;7.804;2022-07-30T08:43:36;4.33;;;3.10;;
19653;SDS011;9975;48.046;7.804;2022-07-30T08:46:03;3.00;;;2.80;;
19653;SDS011;9975;48.046;7.804;2022-07-30T08:48:36;16.63;;;3.37;;
19653;SDS011;9975;48.046;7.804;2022-07-30T08:51:02;3.80;;;3.03;;
19653;SDS011;9975;48.046;7.804;2022-07-30T08:53:28;3.33;;;3.03;;
19653;SDS011;9975;48.046;7.804;2022-07-30T08:55:58;4.00;;;2.87;;
19653;SDS011;9975;48.046;7.804;2022-07-30T08:58:28;3.40;;;3.10;;
19653;SDS011;9975;48.046;7.804;2022-07-30T09:00:55;5.47;;;2.80;;
19653;SDS011;9975;48.046;7.804;2022-07-30T09:03:21;3.67;;;2.30;;
19653;SDS011;9975;48.046;7.804;2022-07-30T09:05:47;6.43;;;2.70;;
19653;SDS011;9975;48.046;7.804;2022-07-30T09:08:13;2.67;;;2.47;;
19653;SDS011;9975;48.046;7.804;2022-07-30T09:10:38;3.70;;;2.90;;
19653;SDS011;9975;48.046;7.804;2022-07-30T09:13:10;10.90;;;3.07;;
19653;SDS011;9975;48.046;7.804;2022-07-30T09:15:51;2.73;;;2.17;;
19653;SDS011;9975;48.046;7.804;2022-07-30T09:18:52;2.93;;;2.73;;
19653;SDS011;9975;48.046;7.804;2022-07-30T09:21:18;2.40;;;2.20;;
19653;SDS011;9975;48.046;7.804;2022-07-30T09:23:57;4.47;;;2.60;;
19653;SDS011;9975;48.046;7.804;2022-07-30T09:26:33;4.83;;;2.60;;
19653;SDS011;9975;48.046;7.804;2022-07-30T09:29:30;2.03;;;1.93;;
19653;SDS011;9975;48.046;7.804;2022-07-30T09:34:27;2.60;;;2.40;;
19653;SDS011;9975;48.046;7.804;2022-07-30T09:36:56;2.13;;;2.03;;
19653;SDS011;9975;48.046;7.804;2022-07-30T09:39:31;2.37;;;2.10;;
19653;SDS011;9975;48.046;7.804;2022-07-30T09:41:57;2.40;;;2.07;;
19653;SDS011;9975;48.046;7.804;2022-07-30T09:44:23;3.97;;;2.47;;
19653;SDS011;9975;48.046;7.804;2022-07-30T09:46:51;3.40;;;2.10;;
19653;SDS011;9975;48.046;7.804;2022-07-30T09:49:21;2.80;;;2.00;;
19653;SDS011;9975;48.046;7.804;2022-07-30T09:51:48;3.47;;;2.03;;
19653;SDS011;9975;48.046;7.804;2022-07-30T09:54:15;3.40;;;1.60;;
19653;SDS011;9975;48.046;7.804;2022-07-30T09:56:41;5.17;;;2.13;;
19653;SDS011;9975;48.046;7.804;2022-07-30T10:01:52;3.00;;;1.80;;
19653;SDS011;9975;48.046;7.804;2022-07-30T10:04:27;2.47;;;2.23;;
19653;SDS011;9975;48.046;7.804;2022-07-30T10:06:53;2.33;;;2.00;;
19653;SDS011;9975;48.046;7.804;2022-07-30T10:09:24;2.47;;;2.13;;
19653;SDS011;9975;48.046;7.804;2022-07-30T10:11:59;2.00;;;1.90;;
19653;SDS011;9975;48.046;7.804;2022-07-30T10:14:35;2.60;;;2.40;;
19653;SDS011;9975;48.046;7.804;2022-07-30T10:17:02;3.43;;;2.10;;
19653;SDS011;9975;48.046;7.804;2022-07-30T10:19:30;2.77;;;1.73;;
19653;SDS011;9975;48.046;7.804;2022-07-30T10:21:56;4.03;;;2.00;;
19653;SDS011;9975;48.046;7.804;2022-07-30T10:24:24;2.67;;;2.20;;
19653;SDS011;9975;48.046;7.804;2022-07-30T10:26:50;4.33;;;1.90;;
19653;SDS011;9975;48.046;7.804;2022-07-30T10:29:18;3.53;;;2.77;;
19653;SDS011;9975;48.046;7.804;2022-07-30T10:31:48;1.90;;;1.80;;
19653;SDS011;9975;48.046;7.804;2022-07-30T10:34:14;4.00;;;2.10;;
19653;SDS011;9975;48.046;7.804;2022-07-30T10:36:42;2.50;;;2.30;;
19653;SDS011;9975;48.046;7.804;2022-07-30T10:39:13;1.97;;;1.87;;
19653;SDS011;9975;48.046;7.804;2022-07-30T10:47:19;2.77;;;2.57;;
19653;SDS011;9975;48.046;7.804;2022-07-30T10:55:13;2.90;;;2.13;;
19653;SDS011;9975;48.046;7.804;2022-07-30T10:57:55;3.33;;;2.43;;
19653;SDS011;9975;48.046;7.804;2022-07-30T11:00:28;2.20;;;2.10;;
19653;SDS011;9975;48.046;7.804;2022-07-30T11:05:45;2.53;;;2.33;;
19653;SDS011;9975;48.046;7.804;2022-07-30T11:08:31;6.63;;;2.40;;
19653;SDS011;9975;48.046;7.804;2022-07-30T11:10:58;4.03;;;2.17;;
19653;SDS011;9975;48.046;7.804;2022-07-30T11:16:22;2.50;;;2.30;;
19653;SDS011;9975;48.046;7.804;2022-07-30T11:19:10;2.77;;;2.50;;
19653;SDS011;9975;48.046;7.804;2022-07-30T11:21:40;3.03;;;2.30;;
19653;SDS011;9975;48.046;7.804;2022-07-30T11:24:40;2.33;;;2.23;;
19653;SDS011;9975;48.046;7.804;2022-07-30T11:27:06;2.00;;;1.90;;
19653;SDS011;9975;48.046;7.804;2022-07-30T11:29:36;4.30;;;2.43;;
19653;SDS011;9975;48.046;7.804;2022-07-30T11:37:56;2.40;;;2.20;;
19653;SDS011;9975;48.046;7.804;2022-07-30T11:40:30;3.03;;;2.83;;
19653;SDS011;9975;48.046;7.804;2022-07-30T11:46:03;2.40;;;2.27;;
19653;SDS011;9975;48.046;7.804;2022-07-30T11:48:37;3.53;;;2.47;;
19653;SDS011;9975;48.046;7.804;2022-07-30T11:51:06;6.63;;;2.20;;
19653;SDS011;9975;48.046;7.804;2022-07-30T11:53:36;2.10;;;2.00;;
19653;SDS011;9975;48.046;7.804;2022-07-30T11:56:02;2.13;;;2.03;;
19653;SDS011;9975;48.046;7.804;2022-07-30T11:58:33;3.17;;;2.30;;
19653;SDS011;9975;48.046;7.804;2022-07-30T12:01:02;2.70;;;2.50;;
19653;SDS011;9975;48.046;7.804;2022-07-30T12:03:38;2.83;;;2.23;;
19653;SDS011;9975;48.046;7.804;2022-07-30T12:06:06;5.77;;;2.20;;
19653;SDS011;9975;48.046;7.804;2022-07-30T12:08:41;2.43;;;2.23;;
19653;SDS011;9975;48.046;7.804;2022-07-30T12:11:08;3.20;;;2.40;;
19653;SDS011;9975;48.046;7.804;2022-07-30T12:13:34;2.23;;;2.03;;
19653;SDS011;9975;48.046;7.804;2022-07-30T12:16:02;4.03;;;2.50;;
19653;SDS011;9975;48.046;7.804;2022-07-30T12:18:35;3.30;;;1.87;;
19653;SDS011;9975;48.046;7.804;2022-07-30T12:21:02;2.60;;;2.40;;
19653;SDS011;9975;48.046;7.804;2022-07-30T12:23:30;4.03;;;2.20;;
19653;SDS011;9975;48.046;7.804;2022-07-30T12:25:56;3.77;;;2.47;;
19653;SDS011;9975;48.046;7.804;2022-07-30T12:28:23;3.40;;;2.43;;
19653;SDS011;9975;48.046;7.804;2022-07-30T12:30:54;2.83;;;2.30;;
19653;SDS011;9975;48.046;7.804;2022-07-30T12:33:21;5.27;;;2.37;;
19653;SDS011;9975;48.046;7.804;2022-07-30T12:35:48;5.73;;;2.70;;
19653;SDS011;9975;48.046;7.804;2022-07-30T12:38:15;2.77;;;2.10;;
19653;SDS011;9975;48.046;7.804;2022-07-30T12:41:01;5.47;;;2.40;;
19653;SDS011;9975;48.046;7.804;2022-07-30T12:46:18;9.83;;;2.50;;
19653;SDS011;9975;48.046;7.804;2022-07-30T12:48:48;2.50;;;1.90;;
19653;SDS011;9975;48.046;7.804;2022-07-30T12:51:14;4.37;;;3.33;;
19653;SDS011;9975;48.046;7.804;2022-07-30T12:53:40;2.20;;;2.00;;
19653;SDS011;9975;48.046;7.804;2022-07-30T12:56:16;3.00;;;2.70;;
19653;SDS011;9975;48.046;7.804;2022-07-30T12:58:42;2.37;;;2.03;;
19653;SDS011;9975;48.046;7.804;2022-07-30T13:01:09;2.97;;;2.57;;
19653;SDS011;9975;48.046;7.804;2022-07-30T13:03:35;2.30;;;2.20;;
19653;SDS011;9975;48.046;7.804;2022-07-30T13:06:14;2.73;;;1.90;;
19653;SDS011;9975;48.046;7.804;2022-07-30T13:11:35;2.30;;;2.10;;
19653;SDS011;9975;48.046;7.804;2022-07-30T13:14:06;3.30;;;2.50;;
19653;SDS011;9975;48.046;7.804;2022-07-30T13:16:34;5.00;;;1.80;;
19653;SDS011;9975;48.046;7.804;2022-07-30T13:19:04;5.77;;;2.27;;
19653;SDS011;9975;48.046;7.804;2022-07-30T13:21:31;2.13;;;1.93;;
19653;SDS011;9975;48.046;7.804;2022-07-30T13:23:58;2.50;;;2.30;;
19653;SDS011;9975;48.046;7.804;2022-07-30T13:26:24;4.03;;;2.50;;
19653;SDS011;9975;48.046;7.804;2022-07-30T13:28:53;2.63;;;2.00;;
19653;SDS011;9975;48.046;7.804;2022-07-30T13:31:20;2.20;;;2.00;;
19653;SDS011;9975;48.046;7.804;2022-07-30T13:33:46;2.13;;;1.80;;
19653;SDS011;9975;48.046;7.804;2022-07-30T13:36:11;5.60;;;2.20;;
19653;SDS011;9975;48.046;7.804;2022-07-30T13:38:37;2.83;;;2.27;;
19653;SDS011;9975;48.046;7.804;2022-07-30T13:41:03;3.10;;;2.10;;
19653;SDS011;9975;48.046;7.804;2022-07-30T13:43:29;2.20;;;2.10;;
19653;SDS011;9975;48.046;7.804;2022-07-30T13:45:55;2.73;;;2.27;;
19653;SDS011;9975;48.046;7.804;2022-07-30T13:48:20;2.40;;;2.00;;
19653;SDS011;9975;48.046;7.804;2022-07-30T13:50:47;2.23;;;2.03;;
19653;SDS011;9975;48.046;7.804;2022-07-30T13:53:12;2.60;;;1.97;;
19653;SDS011;9975;48.046;7.804;2022-07-30T13:55:38;5.03;;;2.17;;
19653;SDS011;9975;48.046;7.804;2022-07-30T13:58:06;3.33;;;2.23;;
19653;SDS011;9975;48.046;7.804;2022-07-30T14:00:32;2.40;;;2.00;;
19653;SDS011;9975;48.046;7.804;2022-07-30T14:03:00;2.60;;;2.10;;
19653;SDS011;9975;48.046;7.804;2022-07-30T14:05:28;3.07;;;2.80;;
19653;SDS011;9975;48.046;7.804;2022-07-30T14:07:53;3.90;;;2.00;;
19653;SDS011;9975;48.046;7.804;2022-07-30T14:10:19;2.13;;;1.93;;
19653;SDS011;9975;48.046;7.804;2022-07-30T14:12:49;2.40;;;2.20;;
19653;SDS011;9975;48.046;7.804;2022-07-30T14:15:18;9.07;;;2.37;;
19653;SDS011;9975;48.046;7.804;2022-07-30T14:17:44;2.50;;;2.30;;
19653;SDS011;9975;48.046;7.804;2022-07-30T14:20:10;4.63;;;2.17;;
19653;SDS011;9975;48.046;7.804;2022-07-30T14:22:36;2.33;;;2.00;;
19653;SDS011;9975;48.046;7.804;2022-07-30T14:25:02;2.80;;;1.90;;
19653;SDS011;9975;48.046;7.804;2022-07-30T14:27:28;5.50;;;2.20;;
19653;SDS011;9975;48.046;7.804;2022-07-30T14:29:54;2.60;;;2.40;;
19653;SDS011;9975;48.046;7.804;2022-07-30T14:32:19;2.80;;;2.03;;
19653;SDS011;9975;48.046;7.804;2022-07-30T14:34:45;4.00;;;1.87;;
19653;SDS011;9975;48.046;7.804;2022-07-30T14:37:11;1.93;;;1.57;;
19653;SDS011;9975;48.046;7.804;2022-07-30T14:39:36;1.80;;;1.70;;
19653;SDS011;9975;48.046;7.804;2022-07-30T14:42:02;5.17;;;2.30;;
19653;SDS011;9975;48.046;7.804;2022-07-30T14:44:29;2.30;;;2.10;;
19653;SDS011;9975;48.046;7.804;2022-07-30T14:46:54;2.00;;;1.77;;
19653;SDS011;9975;48.046;7.804;2022-07-30T14:49:20;2.40;;;2.10;;
19653;SDS011;9975;48.046;7.804;2022-07-30T14:51:46;2.53;;;2.33;;
19653;SDS011;9975;48.046;7.804;2022-07-30T14:54:11;2.63;;;2.27;;
19653;SDS011;9975;48.046;7.804;2022-07-30T14:56:37;2.30;;;2.20;;
19653;SDS011;9975;48.046;7.804;2022-07-30T14:59:03;3.40;;;1.67;;
19653;SDS011;9975;48.046;7.804;2022-07-30T15:01:29;2.67;;;2.17;;
19653;SDS011;9975;48.046;7.804;2022-07-30T15:03:54;2.20;;;2.00;;
19653;SDS011;9975;48.046;7.804;2022-07-30T15:06:20;2.27;;;2.17;;
19653;SDS011;9975;48.046;7.804;2022-07-30T15:08:47;1.93;;;1.73;;
19653;SDS011;9975;48.046;7.804;2022-07-30T15:11:13;2.40;;;1.83;;
19653;SDS011;9975;48.046;7.804;2022-07-30T15:13:39;2.20;;;2.10;;
19653;SDS011;9975;48.046;7.804;2022-07-30T15:16:04;2.90;;;1.97;;
19653;SDS011;9975;48.046;7.804;2022-07-30T15:18:30;2.33;;;2.13;;
19653;SDS011;9975;48.046;7.804;2022-07-30T15:20:57;12.10;;;2.53;;
19653;SDS011;9975;48.046;7.804;2022-07-30T15:23:23;3.50;;;2.57;;
19653;SDS011;9975;48.046;7.804;2022-07-30T15:25:48;3.57;;;2.37;;
19653;SDS011;9975;48.046;7.804;2022-07-30T15:28:14;3.17;;;2.23;;
19653;SDS011;9975;48.046;7.804;2022-07-30T15:30:40;4.00;;;2.53;;
19653;SDS011;9975;48.046;7.804;2022-07-30T15:33:05;3.40;;;2.07;;
19653;SDS011;9975;48.046;7.804;2022-07-30T15:35:31;4.10;;;2.30;;
19653;SDS011;9975;48.046;7.804;2022-07-30T15:37:57;1.93;;;1.83;;
19653;SDS011;9975;48.046;7.804;2022-07-30T15:40:23;3.80;;;2.10;;
19653;SDS011;9975;48.046;7.804;2022-07-30T15:42:49;2.20;;;1.97;;
19653;SDS011;9975;48.046;7.804;2022-07-30T15:45:15;2.37;;;2.00;;
19653;SDS011;9975;48.046;7.804;2022-07-30T15:47:40;2.67;;;2.17;;
19653;SDS011;9975;48.046;7.804;2022-07-30T15:50:06;2.60;;;2.40;;
19653;SDS011;9975;48.046;7.804;2022-07-30T15:52:33;4.30;;;3.20;;
19653;SDS011;9975;48.046;7.804;2022-07-30T15:55:00;4.33;;;2.90;;
19653;SDS011;9975;48.046;7.804;2022-07-30T15:57:28;4.20;;;3.07;;
19653;SDS011;9975;48.046;7.804;2022-07-30T15:59:54;2.03;;;1.93;;
19653;SDS011;9975;48.046;7.804;2022-07-30T16:02:19;2.90;;;1.90;;
19653;SDS011;9975;48.046;7.804;2022-07-30T16:04:45;2.43;;;2.07;;
19653;SDS011;9975;48.046;7.804;2022-07-30T16:07:11;3.00;;;2.10;;
19653;SDS011;9975;48.046;7.804;2022-07-30T16:09:36;3.40;;;1.97;;
19653;SDS011;9975;48.046;7.804;2022-07-30T16:12:02;4.10;;;2.00;;
19653;SDS011;9975;48.046;7.804;2022-07-30T16:14:28;2.80;;;2.13;;
19653;SDS011;9975;48.046;7.804;2022-07-30T16:16:54;3.97;;;1.97;;
19653;SDS011;9975;48.046;7.804;2022-07-30T16:19:19;4.40;;;2.20;;
19653;SDS011;9975;48.046;7.804;2022-07-30T16:21:45;3.37;;;2.00;;
19653;SDS011;9975;48.046;7.804;2022-07-30T16:24:10;2.37;;;2.10;;
19653;SDS011;9975;48.046;7.804;2022-07-30T16:26:36;5.83;;;2.20;;
19653;SDS011;9975;48.046;7.804;2022-07-30T16:29:05;1.80;;;1.70;;
19653;SDS011;9975;48.046;7.804;2022-07-30T16:31:31;2.50;;;2.30;;
19653;SDS011;9975;48.046;7.804;2022-07-30T16:33:56;1.90;;;1.70;;
19653;SDS011;9975;48.046;7.804;2022-07-30T16:36:22;2.30;;;2.13;;
19653;SDS011;9975;48.046;7.804;2022-07-30T16:38:48;2.63;;;2.00;;
19653;SDS011;9975;48.046;7.804;2022-07-30T16:41:13;2.87;;;2.03;;
19653;SDS011;9975;48.046;7.804;2022-07-30T16:43:39;3.70;;;1.87;;
19653;SDS011;9975;48.046;7.804;2022-07-30T16:46:05;1.87;;;1.77;;
19653;SDS011;9975;48.046;7.804;2022-07-30T16:48:30;2.10;;;1.90;;
19653;SDS011;9975;48.046;7.804;2022-07-30T16:50:57;1.60;;;1.50;;
19653;SDS011;9975;48.046;7.804;2022-07-30T16:53:23;2.17;;;2.07;;
19653;SDS011;9975;48.046;7.804;2022-07-30T16:55:48;2.37;;;2.27;;
19653;SDS011;9975;48.046;7.804;2022-07-30T16:58:14;4.13;;;2.33;;
19653;SDS011;9975;48.046;7.804;2022-07-30T17:00:41;3.03;;;1.90;;
19653;SDS011;9975;48.046;7.804;2022-07-30T17:03:07;2.23;;;1.70;;
19653;SDS011;9975;48.046;7.804;2022-07-30T17:05:33;2.50;;;2.30;;
19653;SDS011;9975;48.046;7.804;2022-07-30T17:07:59;1.97;;;1.80;;
19653;SDS011;9975;48.046;7.804;2022-07-30T17:10:24;2.70;;;2.17;;
19653;SDS011;9975;48.046;7.804;2022-07-30T17:12:50;3.53;;;2.13;;
19653;SDS011;9975;48.046;7.804;2022-07-30T17:15:16;4.53;;;2.10;;
19653;SDS011;9975;48.046;7.804;2022-07-30T17:17:41;2.33;;;1.60;;
19653;SDS011;9975;48.046;7.804;2022-07-30T17:20:07;2.00;;;1.90;;
19653;SDS011;9975;48.046;7.804;2022-07-30T17:22:34;3.60;;;2.00;;
19653;SDS011;9975;48.046;7.804;2022-07-30T17:25:00;2.70;;;1.70;;
19653;SDS011;9975;48.046;7.804;2022-07-30T17:27:25;1.87;;;1.67;;
19653;SDS011;9975;48.046;7.804;2022-07-30T17:29:52;1.70;;;1.60;;
19653;SDS011;9975;48.046;7.804;2022-07-30T17:32:19;4.23;;;1.70;;
19653;SDS011;9975;48.046;7.804;2022-07-30T17:34:46;2.53;;;2.27;;
19653;SDS011;9975;48.046;7.804;2022-07-30T17:37:12;1.93;;;1.60;;
19653;SDS011;9975;48.046;7.804;2022-07-30T17:39:38;5.00;;;4.60;;
19653;SDS011;9975;48.046;7.804;2022-07-30T17:42:04;5.80;;;3.10;;